| time (UTC) | temp F | wind direction | speed MPH | gust MPH | rain 1hr in | rain 24hr in | rain mn in | humidity % | barometer mb |
| 20260509171329 | 66 | 47 | 2.0 | 8.0 | 0.00 | 0.00 | 0.00 | 52 | 1016.4 |
| 20260509170347 | 66 | 77 | 2.0 | 5.0 | 0.00 | 0.00 | 0.00 | 51 | 1016.4 |
| 20260509165323 | 66 | 19 | 1.0 | 4.0 | 0.00 | 0.00 | 0.00 | 50 | 1016.5 |
| 20260509164334 | 66 | 23 | 1.0 | 3.0 | 0.00 | 0.00 | 0.00 | 51 | 1016.5 |
| 20260509163347 | 67 | 297 | 2.0 | 5.0 | 0.00 | 0.00 | 0.00 | 50 | 1016.5 |
| 20260509162323 | 67 | 9 | 0.0 | 3.0 | 0.00 | 0.00 | 0.00 | 50 | 1016.4 |
| 20260509161350 | 67 | 58 | 0.0 | 9.0 | 0.00 | 0.00 | 0.00 | 49 | 1016.5 |
| 20260509160342 | 69 | 44 | 4.0 | 8.0 | 0.00 | 0.00 | 0.00 | 47 | 1016.5 |
| 20260509155327 | 70 | 110 | 2.0 | 5.0 | 0.00 | 0.00 | 0.00 | 47 | 1016.3 |
| 20260509154320 | 69 | 330 | 1.0 | 4.0 | 0.00 | 0.00 | 0.00 | 47 | 1016.4 |
| 20260509153326 | 70 | 213 | 2.0 | 5.0 | 0.00 | 0.00 | 0.00 | 45 | 1016.3 |
| 20260509152338 | 72 | 329 | 1.0 | 6.0 | 0.00 | 0.00 | 0.00 | 44 | 1016.3 |
| 20260509151323 | 70 | 5 | 2.0 | 7.0 | 0.00 | 0.00 | 0.00 | 45 | 1016.4 |
| 20260509150339 | 71 | 10 | 2.0 | 6.0 | 0.00 | 0.00 | 0.00 | 44 | 1016.6 |
| 20260509145336 | 72 | 21 | 1.0 | 5.0 | 0.00 | 0.00 | 0.00 | 45 | 1016.6 |
| 20260509144344 | 73 | 15 | 2.0 | 5.0 | 0.00 | 0.00 | 0.00 | 44 | 1016.6 |
| 20260509143320 | 73 | 85 | 3.0 | 7.0 | 0.00 | 0.00 | 0.00 | 44 | 1016.7 |
| 20260509142332 | 71 | 38 | 1.0 | 4.0 | 0.00 | 0.00 | 0.00 | 46 | 1016.7 |
| 20260509141328 | 72 | 19 | 2.0 | 8.0 | 0.00 | 0.00 | 0.00 | 45 | 1016.8 |
| 20260509140320 | 73 | 6 | 2.0 | 7.0 | 0.00 | 0.00 | 0.00 | 46 | 1017.0 |
| 20260509135327 | 71 | 115 | 5.0 | 10.0 | 0.00 | 0.00 | 0.00 | 48 | 1017.1 |
| 20260509134339 | 71 | 73 | 5.0 | 13.0 | 0.00 | 0.00 | 0.00 | 48 | 1017.0 |
| 20260509133327 | 72 | 342 | 1.0 | 4.0 | 0.00 | 0.00 | 0.00 | 46 | 1017.2 |
| 20260509132359 | 71 | 121 | 1.0 | 5.0 | 0.00 | 0.00 | 0.00 | 46 | 1017.3 |
| 20260509131327 | 70 | 208 | 1.0 | 4.0 | 0.00 | 0.00 | 0.00 | 48 | 1017.4 |
| 20260509130354 | 68 | 351 | 1.0 | 6.0 | 0.00 | 0.00 | 0.00 | 47 | 1017.6 |
| 20260509125321 | 68 | 318 | 2.0 | 4.0 | 0.00 | 0.00 | 0.00 | 48 | 1017.7 |
| 20260509124337 | 70 | 342 | 1.0 | 7.0 | 0.00 | 0.00 | 0.00 | 50 | 1017.8 |
| 20260509123342 | 69 | 33 | 1.0 | 12.0 | 0.00 | 0.00 | 0.00 | 50 | 1017.8 |
| 20260509122333 | 71 | 84 | 3.0 | 12.0 | 0.00 | 0.00 | 0.00 | 50 | 1017.9 |
| 20260509121356 | 71 | 180 | 1.0 | 12.0 | 0.00 | 0.00 | 0.00 | 48 | 1017.9 |
| 20260509120342 | 71 | 208 | 4.0 | 10.0 | 0.00 | 0.00 | 0.00 | 47 | 1017.9 |
| 20260509115346 | 69 | 208 | 6.0 | 13.0 | 0.00 | 0.00 | 0.00 | 49 | 1018.1 |
| 20260509114359 | 69 | 116 | 3.0 | 11.0 | 0.00 | 0.00 | 0.00 | 50 | 1018.3 |
| 20260509113347 | 69 | 208 | 5.0 | 10.0 | 0.00 | 0.00 | 0.00 | 51 | 1018.4 |
| 20260509112326 | 69 | 77 | 1.0 | 6.0 | 0.00 | 0.00 | 0.00 | 52 | 1018.5 |
| 20260509111324 | 69 | 4 | 2.0 | 8.0 | 0.00 | 0.00 | 0.00 | 54 | 1018.5 |
| 20260509110322 | 69 | 208 | 5.0 | 10.0 | 0.00 | 0.00 | 0.00 | 54 | 1018.7 |
| 20260509105333 | 68 | 76 | 4.0 | 9.0 | 0.00 | 0.00 | 0.00 | 54 | 1018.7 |
| 20260509104322 | 69 | 86 | 3.0 | 10.0 | 0.00 | 0.00 | 0.00 | 56 | 1018.8 |
| 20260509103334 | 68 | 62 | 2.0 | 10.0 | 0.00 | 0.00 | 0.00 | 58 | 1018.8 |
| 20260509102345 | 68 | 208 | 2.0 | 9.0 | 0.00 | 0.00 | 0.00 | 57 | 1018.9 |
| 20260509101348 | 68 | 94 | 6.0 | 13.0 | 0.00 | 0.00 | 0.00 | 57 | 1019.0 |
| 20260509100338 | 68 | 303 | 1.0 | 9.0 | 0.00 | 0.00 | 0.00 | 58 | 1019.0 |
| 20260509095323 | 67 | 73 | 5.0 | 12.0 | 0.00 | 0.00 | 0.00 | 59 | 1019.1 |
| 20260509094323 | 67 | 342 | 1.0 | 9.0 | 0.00 | 0.00 | 0.00 | 61 | 1019.0 |
| 20260509093345 | 67 | 75 | 3.0 | 10.0 | 0.00 | 0.00 | 0.00 | 61 | 1019.2 |
| 20260509092325 | 66 | 21 | 1.0 | 11.0 | 0.00 | 0.00 | 0.00 | 62 | 1019.1 |
| 20260509091338 | 66 | 21 | 1.0 | 6.0 | 0.00 | 0.00 | 0.00 | 62 | 1019.1 |
| 20260509090341 | 65 | 30 | 1.0 | 8.0 | 0.00 | 0.00 | 0.00 | 64 | 1019.2 |
| 20260509085339 | 64 | 324 | 3.0 | 12.0 | 0.00 | 0.00 | 0.00 | 64 | 1019.2 |
| 20260509084321 | 63 | 46 | 5.0 | 10.0 | 0.00 | 0.00 | 0.00 | 66 | 1019.1 |
| 20260509083331 | 63 | 65 | 2.0 | 11.0 | 0.00 | 0.00 | 0.00 | 68 | 1019.1 |
| 20260509082321 | 62 | 208 | 4.0 | 10.0 | 0.00 | 0.00 | 0.00 | 68 | 1019.1 |
| 20260509081337 | 61 | 7 | 3.0 | 12.0 | 0.00 | 0.00 | 0.00 | 70 | 1019.1 |
| 20260509080353 | 60 | 84 | 5.0 | 10.0 | 0.00 | 0.00 | 0.00 | 71 | 1019.1 |
| 20260509075323 | 59 | 102 | 9.0 | 13.0 | 0.00 | 0.00 | 0.00 | 73 | 1019.1 |
| 20260509074325 | 59 | 134 | 7.0 | 11.0 | 0.00 | 0.00 | 0.00 | 75 | 1019.1 |
| 20260509073352 | 58 | 84 | 6.0 | 12.0 | 0.00 | 0.00 | 0.00 | 78 | 1019.0 |
| 20260509072331 | 57 | 78 | 5.0 | 10.0 | 0.00 | 0.00 | 0.00 | 81 | 1019.0 |
| 20260509071410 | 56 | 97 | 5.0 | 10.0 | 0.00 | 0.00 | 0.00 | 84 | 1019.1 |
| 20260509070328 | 54 | 73 | 1.0 | 3.0 | 0.00 | 0.00 | 0.00 | 86 | 1019.2 |
| 20260509065351 | 53 | 53 | 2.0 | 10.0 | 0.00 | 0.00 | 0.00 | 87 | 1019.3 |
| 20260509064333 | 52 | 89 | 2.0 | 8.0 | 0.00 | 0.00 | 0.00 | 88 | 1019.2 |
| 20260509063338 | 52 | 49 | 2.0 | 8.0 | 0.00 | 0.00 | 0.00 | 90 | 1019.3 |
| 20260509062334 | 51 | 50 | 3.0 | 6.0 | 0.00 | 0.00 | 0.00 | 90 | 1019.3 |
| 20260509061337 | 50 | 52 | 3.0 | 9.0 | 0.00 | 0.00 | 0.00 | 90 | 1019.3 |
| 20260509060330 | 49 | 65 | 3.0 | 8.0 | 0.00 | 0.00 | 0.00 | 91 | 1019.3 |
| 20260509055353 | 49 | 52 | 3.0 | 9.0 | 0.00 | 0.00 | 0.00 | 91 | 1019.3 |
| 20260509054333 | 48 | 90 | 3.0 | 5.0 | 0.00 | 0.00 | 0.00 | 91 | 1019.3 |
| 20260509053353 | 48 | 71 | 0.0 | 2.0 | 0.00 | 0.00 | 0.00 | 91 | 1019.3 |
| 20260509052321 | 47 | 82 | 0.0 | 1.0 | 0.00 | 0.00 | 0.00 | 90 | 1019.1 |
| 20260509051323 | 46 | 84 | 1.0 | 2.0 | 0.00 | 0.00 | 0.00 | 90 | 1019.2 |
| 20260509050333 | 46 | 84 | 0.0 | 1.0 | 0.00 | 0.00 | 0.00 | 90 | 1019.1 |
| 20260509045322 | 46 | 85 | 0.0 | 1.0 | 0.00 | 0.00 | 0.00 | 89 | 1019.1 |
| 20260509044334 | 45 | 156 | 0.0 | 0.0 | 0.00 | 0.00 | 0.00 | 88 | 1019.1 |
| 20260509043354 | 45 | 156 | 0.0 | 0.0 | 0.00 | 0.00 | 0.00 | 88 | 1019.0 |
| 20260509042328 | 45 | 121 | 0.0 | 0.0 | 0.00 | 0.00 | 0.00 | 88 | 1018.9 |
| 20260509041345 | 46 | 75 | 0.0 | 0.0 | 0.00 | 0.00 | 0.00 | 88 | 1018.9 |
| 20260509040347 | 46 | 75 | 0.0 | 0.0 | 0.00 | 0.00 | 0.00 | 88 | 1018.9 |
| 20260509035357 | 46 | 75 | 0.0 | 0.0 | 0.00 | 0.00 | 0.00 | 88 | 1018.8 |
| 20260509034327 | 47 | 75 | 0.0 | 0.0 | 0.00 | 0.00 | 0.00 | 88 | 1018.8 |
| 20260509033340 | 47 | 75 | 0.0 | 0.0 | 0.00 | 0.00 | 0.00 | 87 | 1018.8 |
| 20260509032352 | 47 | 75 | 0.0 | 2.0 | 0.00 | 0.00 | 0.00 | 87 | 1018.8 |
| 20260509031341 | 47 | 74 | 1.0 | 3.0 | 0.00 | 0.00 | 0.00 | 87 | 1018.9 |
| 20260509030355 | 47 | 73 | 0.0 | 2.0 | 0.00 | 0.00 | 0.00 | 86 | 1019.0 |
| 20260509025328 | 47 | 74 | 0.0 | 0.0 | 0.00 | 0.00 | 0.00 | 86 | 1019.0 |
| 20260509024353 | 47 | 74 | 0.0 | 1.0 | 0.00 | 0.00 | 0.00 | 86 | 1018.9 |
| 20260509023327 | 47 | 74 | 0.0 | 1.0 | 0.00 | 0.00 | 0.00 | 86 | 1018.9 |
| 20260509022333 | 48 | 73 | 0.0 | 1.0 | 0.00 | 0.00 | 0.00 | 85 | 1018.9 |
| 20260509021323 | 48 | 74 | 0.0 | 2.0 | 0.00 | 0.00 | 0.00 | 85 | 1019.0 |
| 20260509020332 | 48 | 87 | 0.0 | 0.0 | 0.00 | 0.00 | 0.00 | 85 | 1018.9 |
| 20260509015329 | 48 | 87 | 0.0 | 0.0 | 0.00 | 0.00 | 0.00 | 85 | 1018.9 |
| 20260509014335 | 48 | 87 | 0.0 | 1.0 | 0.00 | 0.00 | 0.00 | 84 | 1018.9 |
| 20260509013329 | 48 | 87 | 0.0 | 1.0 | 0.00 | 0.00 | 0.00 | 84 | 1018.9 |
| 20260509012338 | 48 | 87 | 0.0 | 3.0 | 0.00 | 0.00 | 0.00 | 84 | 1019.0 |
| 20260509011332 | 49 | 90 | 0.0 | 0.0 | 0.00 | 0.00 | 0.00 | 83 | 1019.1 |
| 20260509010324 | 49 | 90 | 0.0 | 0.0 | 0.00 | 0.00 | 0.00 | 83 | 1019.1 |
| 20260509005332 | 49 | 90 | 0.0 | 1.0 | 0.00 | 0.00 | 0.00 | 83 | 1019.1 |
| 20260509004320 | 50 | 90 | 0.0 | 1.0 | 0.00 | 0.00 | 0.00 | 83 | 1019.0 |
| 20260509003329 | 50 | 90 | 1.0 | 3.0 | 0.00 | 0.00 | 0.00 | 83 | 1019.0 |
| 20260509002358 | 50 | 90 | 0.0 | 4.0 | 0.00 | 0.00 | 0.00 | 83 | 1019.0 |
| 20260509001343 | 51 | 74 | 2.0 | 4.0 | 0.00 | 0.00 | 0.00 | 83 | 1019.0 |
| 20260509000322 | 51 | 90 | 3.0 | 4.0 | 0.00 | 0.00 | 0.00 | 83 | 1018.9 |
| 20260508235338 | 51 | 90 | 3.0 | 5.0 | 0.00 | 0.00 | 0.00 | 83 | 1018.9 |
| 20260508234321 | 51 | 208 | 2.0 | 6.0 | 0.00 | 0.00 | 0.00 | 82 | 1018.9 |
| 20260508233332 | 50 | 38 | 0.0 | 3.0 | 0.00 | 0.00 | 0.00 | 80 | 1019.0 |
| 20260508232321 | 51 | 34 | 0.0 | 0.0 | 0.00 | 0.00 | 0.00 | 79 | 1019.0 |
| 20260508231348 | 51 | 34 | 0.0 | 1.0 | 0.00 | 0.00 | 0.00 | 78 | 1018.9 |
| 20260508230348 | 51 | 34 | 0.0 | 1.0 | 0.00 | 0.00 | 0.00 | 77 | 1018.9 |
| 20260508225336 | 52 | 34 | 0.0 | 0.0 | 0.00 | 0.00 | 0.00 | 77 | 1018.9 |
| 20260508224350 | 52 | 34 | 0.0 | 0.0 | 0.00 | 0.00 | 0.00 | 77 | 1019.0 |
| 20260508223359 | 53 | 34 | 0.0 | 1.0 | 0.00 | 0.00 | 0.00 | 76 | 1019.1 |
| 20260508222319 | 53 | 35 | 0.0 | 1.0 | 0.00 | 0.00 | 0.00 | 75 | 1019.1 |
| 20260508221325 | 53 | 36 | 0.0 | 0.0 | 0.00 | 0.00 | 0.00 | 74 | 1019.0 |
| 20260508220408 | 53 | 36 | 0.0 | 0.0 | 0.00 | 0.00 | 0.00 | 73 | 1019.1 |
| 20260508215352 | 54 | 36 | 0.0 | 0.0 | 0.00 | 0.00 | 0.00 | 72 | 1019.0 |
| 20260508214349 | 54 | 36 | 0.0 | 0.0 | 0.00 | 0.00 | 0.00 | 72 | 1019.1 |
| 20260508213335 | 54 | 36 | 0.0 | 0.0 | 0.00 | 0.00 | 0.00 | 71 | 1019.1 |
| 20260508212325 | 55 | 36 | 0.0 | 0.0 | 0.00 | 0.00 | 0.00 | 70 | 1019.1 |
| 20260508211336 | 55 | 36 | 0.0 | 0.0 | 0.00 | 0.00 | 0.00 | 69 | 1019.1 |
| 20260508210349 | 56 | 36 | 0.0 | 0.0 | 0.00 | 0.00 | 0.00 | 68 | 1019.0 |
| 20260508205334 | 56 | 36 | 0.0 | 1.0 | 0.00 | 0.00 | 0.00 | 67 | 1019.0 |
| 20260508204324 | 57 | 36 | 0.0 | 0.0 | 0.00 | 0.00 | 0.00 | 66 | 1018.9 |
| 20260508203321 | 58 | 36 | 0.0 | 2.0 | 0.00 | 0.00 | 0.00 | 65 | 1018.9 |
| 20260508202326 | 58 | 36 | 1.0 | 3.0 | 0.00 | 0.00 | 0.00 | 64 | 1018.9 |
| 20260508201322 | 59 | 11 | 0.0 | 1.0 | 0.00 | 0.00 | 0.00 | 63 | 1018.9 |
| 20260508200348 | 59 | 11 | 0.0 | 1.0 | 0.00 | 0.00 | 0.00 | 63 | 1018.8 |
| 20260508195318 | 59 | 11 | 0.0 | 3.0 | 0.00 | 0.00 | 0.00 | 62 | 1018.8 |
| 20260508194330 | 60 | 25 | 0.0 | 2.0 | 0.00 | 0.00 | 0.00 | 61 | 1018.8 |
| 20260508193326 | 60 | 64 | 0.0 | 3.0 | 0.00 | 0.00 | 0.00 | 61 | 1018.7 |
| 20260508192354 | 60 | 31 | 0.0 | 2.0 | 0.00 | 0.00 | 0.00 | 60 | 1018.6 |
| 20260508191321 | 60 | 40 | 0.0 | 1.0 | 0.00 | 0.00 | 0.00 | 60 | 1018.4 |
| 20260508190329 | 61 | 40 | 0.0 | 1.0 | 0.00 | 0.00 | 0.00 | 60 | 1018.4 |
| 20260508185326 | 61 | 41 | 0.0 | 1.0 | 0.00 | 0.00 | 0.00 | 59 | 1018.3 |
| 20260508184332 | 61 | 42 | 0.0 | 2.0 | 0.00 | 0.00 | 0.00 | 59 | 1018.2 |
| 20260508183326 | 61 | 27 | 0.0 | 2.0 | 0.00 | 0.00 | 0.00 | 59 | 1018.0 |
| 20260508182325 | 61 | 27 | 0.0 | 2.0 | 0.00 | 0.00 | 0.00 | 59 | 1017.9 |
| 20260508181335 | 62 | 23 | 0.0 | 2.0 | 0.00 | 0.00 | 0.00 | 58 | 1017.9 |
| 20260508180353 | 62 | 32 | 0.0 | 3.0 | 0.00 | 0.00 | 0.00 | 58 | 1017.9 |
| 20260508175345 | 62 | 359 | 0.0 | 2.0 | 0.00 | 0.00 | 0.00 | 58 | 1017.8 |
| 20260508174355 | 62 | 34 | 0.0 | 2.0 | 0.00 | 0.00 | 0.00 | 58 | 1017.8 |
| 20260508173344 | 62 | 6 | 0.0 | 2.0 | 0.00 | 0.00 | 0.00 | 58 | 1017.7 |
| 20260508172331 | 63 | 3 | 1.0 | 2.0 | 0.00 | 0.00 | 0.00 | 58 | 1017.6 |